createdAt,value
2018-07-21T00:01:16.398Z,74.17
2018-07-21T00:03:45.495Z,74.24
2018-07-21T00:06:14.243Z,74.29
2018-07-21T00:08:43.362Z,74.32
2018-07-21T00:11:12.803Z,74.12
2018-07-21T00:13:41.847Z,73.97
2018-07-21T00:16:10.607Z,73.49
2018-07-21T00:18:39.342Z,73.72
2018-07-21T00:21:08.147Z,73.49
2018-07-21T00:23:36.883Z,72.97
2018-07-21T00:26:05.578Z,73.72
2018-07-21T00:28:34.355Z,73.51
2018-07-21T00:31:03.150Z,73.54
2018-07-21T00:33:32.111Z,73.39
2018-07-21T00:36:01.131Z,73.71
2018-07-21T00:38:30.378Z,73.64
2018-07-21T00:40:59.061Z,73.50
2018-07-21T00:43:28.228Z,73.58
2018-07-21T00:45:57.320Z,73.10
2018-07-21T00:48:26.574Z,73.17
2018-07-21T00:50:55.481Z,73.05
2018-07-21T00:53:24.614Z,73.31
2018-07-21T00:55:53.945Z,73.34
2018-07-21T00:58:23.127Z,73.32
2018-07-21T01:00:52.758Z,73.15
2018-07-21T01:03:21.902Z,73.30
2018-07-21T01:05:51.375Z,72.51
2018-07-21T01:08:20.914Z,72.79
2018-07-21T01:10:50.406Z,72.98
2018-07-21T01:13:19.275Z,72.56
2018-07-21T01:15:48.695Z,72.44
2018-07-21T01:18:17.728Z,72.11
2018-07-21T01:20:46.643Z,71.83
2018-07-21T01:23:15.973Z,70.89
2018-07-21T01:25:45.667Z,71.02
2018-07-21T01:28:14.819Z,70.99
2018-07-21T01:30:44.402Z,71.04
2018-07-21T01:33:13.724Z,71.38
2018-07-21T01:35:42.692Z,71.19
2018-07-21T01:38:12.874Z,70.48
2018-07-21T01:40:42.320Z,70.02
2018-07-21T01:43:11.455Z,69.86
2018-07-21T01:45:40.562Z,69.99
2018-07-21T01:48:09.348Z,69.56
2018-07-21T01:50:38.343Z,69.24
2018-07-21T01:53:07.232Z,69.35
2018-07-21T01:55:36.651Z,69.57
2018-07-21T01:58:05.661Z,68.83
2018-07-21T02:00:34.485Z,68.31
2018-07-21T02:03:03.437Z,68.87
2018-07-21T02:05:32.805Z,68.07
2018-07-21T02:08:03.683Z,68.13
2018-07-21T02:10:34.380Z,68.30
2018-07-21T02:13:04.442Z,67.66
2018-07-21T02:15:33.824Z,67.57
2018-07-21T02:18:02.804Z,67.03
2018-07-21T02:20:31.602Z,67.26
2018-07-21T02:23:00.451Z,66.84
2018-07-21T02:25:29.698Z,66.81
2018-07-21T02:27:59.058Z,66.55
2018-07-21T02:30:27.943Z,66.35
2018-07-21T02:32:56.799Z,66.01
2018-07-21T02:35:25.579Z,66.21
2018-07-21T02:37:54.648Z,66.48
2018-07-21T02:40:23.941Z,66.55
2018-07-21T02:42:53.145Z,66.46
2018-07-21T02:45:22.363Z,66.61
2018-07-21T02:47:51.480Z,66.40
2018-07-21T02:50:20.226Z,67.29
2018-07-21T02:52:49.275Z,68.67
2018-07-21T02:55:18.343Z,70.10
2018-07-21T02:57:47.145Z,71.38
2018-07-21T03:00:16.378Z,72.54
2018-07-21T03:02:45.533Z,73.73
2018-07-21T03:05:14.473Z,73.90
2018-07-21T03:07:43.667Z,74.71
2018-07-21T03:10:12.418Z,74.33
2018-07-21T03:12:42.212Z,74.65
2018-07-21T03:15:11.373Z,73.62
2018-07-21T03:17:40.490Z,74.74
2018-07-21T03:20:09.395Z,74.08
2018-07-21T03:22:38.077Z,73.95
2018-07-21T03:25:07.475Z,73.79
2018-07-21T03:27:36.588Z,74.16
2018-07-21T03:30:06.171Z,74.17
2018-07-21T03:32:35.694Z,73.59
2018-07-21T03:35:04.714Z,72.78
2018-07-21T03:37:33.422Z,72.83
2018-07-21T03:40:02.582Z,73.02
2018-07-21T03:42:31.566Z,72.65
2018-07-21T03:45:00.901Z,72.67
2018-07-21T03:47:29.907Z,73.55
2018-07-21T03:49:58.685Z,72.42
2018-07-21T03:52:27.451Z,71.79
2018-07-21T03:54:56.750Z,71.71
2018-07-21T03:57:26.359Z,71.85
2018-07-21T03:59:55.930Z,71.81
2018-07-21T04:02:25.262Z,71.38
2018-07-21T04:04:55.116Z,70.42
2018-07-21T04:07:24.858Z,71.08
2018-07-21T04:09:54.596Z,70.23
2018-07-21T04:12:24.282Z,69.65
2018-07-21T04:14:54.028Z,69.81
2018-07-21T04:17:27.479Z,70.38
2018-07-21T04:19:57.726Z,71.07
2018-07-21T04:22:27.197Z,72.16
2018-07-21T04:24:56.442Z,71.47
2018-07-21T04:27:25.600Z,71.25
2018-07-21T04:29:54.418Z,72.57
2018-07-21T04:32:23.208Z,72.23
2018-07-21T04:34:52.214Z,72.81
2018-07-21T04:37:21.517Z,73.45
2018-07-21T04:39:50.930Z,74.67
2018-07-21T04:42:19.983Z,73.82
2018-07-21T04:44:49.167Z,74.35
2018-07-21T04:47:18.273Z,72.80
2018-07-21T04:49:47.005Z,73.81
2018-07-21T04:52:15.804Z,73.74
2018-07-21T04:54:44.799Z,73.52
2018-07-21T04:57:13.634Z,74.42
2018-07-21T04:59:42.844Z,74.15
2018-07-21T05:02:11.917Z,74.35
2018-07-21T05:04:40.922Z,74.31
2018-07-21T05:07:10.305Z,75.18
2018-07-21T05:09:39.425Z,76.91
2018-07-21T05:12:07.749Z,77.22
2018-07-21T05:14:37.174Z,78.10
2018-07-21T05:17:06.171Z,78.44
2018-07-21T05:19:35.066Z,77.95
2018-07-21T05:22:04.186Z,77.89
2018-07-21T05:24:33.090Z,78.17
2018-07-21T05:27:02.601Z,78.30
2018-07-21T05:29:31.918Z,78.14
2018-07-21T05:32:00.978Z,78.97
2018-07-21T05:34:29.990Z,79.30
2018-07-21T05:36:59.184Z,77.57
2018-07-21T05:39:28.288Z,76.12
2018-07-21T05:41:57.785Z,75.82
2018-07-21T05:44:27.579Z,74.61
2018-07-21T05:46:56.602Z,74.13
2018-07-21T05:49:25.932Z,73.41
2018-07-21T05:51:55.445Z,74.51
2018-07-21T05:54:24.226Z,75.60
2018-07-21T05:56:53.112Z,73.93
2018-07-21T05:59:22.035Z,73.82
2018-07-21T06:01:51.300Z,72.08
2018-07-21T06:04:20.258Z,70.73
2018-07-21T06:06:49.742Z,71.10
2018-07-21T06:09:19.075Z,71.79
2018-07-21T06:11:47.790Z,71.60
2018-07-21T06:14:16.834Z,71.00
2018-07-21T06:16:45.906Z,72.14
2018-07-21T06:19:15.449Z,70.91
2018-07-21T06:21:44.331Z,71.83
2018-07-21T06:24:13.748Z,71.38
2018-07-21T06:26:43.556Z,68.75
2018-07-21T06:29:12.631Z,67.20
2018-07-21T06:31:41.933Z,66.40
2018-07-21T06:34:11.531Z,66.55
2018-07-21T06:36:41.304Z,66.04
2018-07-21T06:39:12.568Z,64.03
2018-07-21T06:41:41.807Z,64.53
2018-07-21T06:44:10.742Z,64.30
2018-07-21T06:46:39.554Z,65.03
2018-07-21T06:49:08.336Z,65.17
2018-07-21T06:51:37.514Z,65.49
2018-07-21T06:54:06.551Z,65.22
2018-07-21T06:56:35.641Z,65.38
2018-07-21T06:59:04.839Z,64.31
2018-07-21T07:01:34.041Z,65.06
2018-07-21T07:04:02.990Z,64.98
2018-07-21T07:06:32.052Z,65.54
2018-07-21T07:09:00.821Z,64.50
2018-07-21T07:11:29.668Z,64.24
2018-07-21T07:13:58.997Z,62.79
2018-07-21T07:16:29.084Z,62.25
2018-07-21T07:18:57.944Z,61.11
2018-07-21T07:21:26.915Z,60.42
2018-07-21T07:23:55.733Z,60.81
2018-07-21T07:26:24.626Z,61.48
2018-07-21T07:28:54.120Z,61.23
2018-07-21T07:31:23.184Z,59.87
2018-07-21T07:33:52.290Z,59.48
2018-07-21T07:36:21.140Z,60.08
2018-07-21T07:38:50.219Z,59.35
2018-07-21T07:41:19.042Z,58.31
2018-07-21T07:43:48.064Z,58.43
2018-07-21T07:46:17.610Z,57.92
2018-07-21T07:48:46.788Z,58.78
2018-07-21T07:51:15.869Z,59.35
2018-07-21T07:53:44.993Z,58.66
2018-07-21T07:56:13.770Z,58.84
2018-07-21T07:58:42.578Z,58.24
2018-07-21T08:01:11.390Z,57.83
2018-07-21T08:03:40.386Z,57.23
2018-07-21T08:06:09.454Z,56.60
2018-07-21T08:08:38.214Z,53.70
2018-07-21T08:11:07.339Z,53.48
2018-07-21T08:13:36.716Z,54.45
2018-07-21T08:16:06.270Z,50.94
2018-07-21T08:18:35.017Z,53.01
2018-07-21T08:21:04.076Z,52.58
2018-07-21T08:23:33.320Z,52.59
2018-07-21T08:26:02.237Z,49.94
2018-07-21T08:28:31.044Z,51.37
2018-07-21T08:30:59.882Z,52.31
2018-07-21T08:33:28.714Z,50.21
2018-07-21T08:35:57.875Z,50.17
2018-07-21T08:38:27.192Z,50.76
2018-07-21T08:40:56.321Z,50.54
2018-07-21T08:43:25.099Z,50.55
2018-07-21T08:45:54.089Z,51.20
2018-07-21T08:48:25.110Z,50.11
2018-07-21T08:50:53.895Z,50.39
2018-07-21T08:53:22.953Z,51.26
2018-07-21T08:55:51.941Z,50.27
2018-07-21T08:58:20.951Z,49.81
2018-07-21T09:00:49.975Z,49.62
2018-07-21T09:03:19.062Z,49.54
2018-07-21T09:05:48.138Z,47.92
2018-07-21T09:08:17.243Z,48.63
2018-07-21T09:10:46.318Z,48.24
2018-07-21T09:13:15.170Z,47.11
2018-07-21T09:15:43.914Z,46.66
2018-07-21T09:18:12.656Z,45.69
2018-07-21T09:20:41.447Z,46.22
2018-07-21T09:23:10.235Z,45.94
2018-07-21T09:25:39.271Z,45.41
2018-07-21T09:28:08.193Z,44.93
2018-07-21T09:30:37.274Z,42.77
2018-07-21T09:33:06.387Z,42.88
2018-07-21T09:35:35.247Z,42.95
2018-07-21T09:38:04.135Z,43.15
2018-07-21T09:40:33.233Z,43.98
2018-07-21T09:43:02.302Z,41.95
2018-07-21T09:45:31.977Z,42.39
2018-07-21T09:48:07.699Z,40.03
2018-07-21T09:50:37.051Z,40.50
2018-07-21T09:53:06.495Z,40.52
2018-07-21T09:55:35.948Z,39.63
2018-07-21T09:58:04.946Z,39.57
2018-07-21T10:00:38.831Z,38.93
2018-07-21T10:03:07.959Z,38.73
2018-07-21T10:05:36.716Z,38.77
2018-07-21T10:08:15.158Z,38.42
2018-07-21T10:10:44.187Z,37.24
2018-07-21T10:13:13.497Z,36.78
2018-07-21T10:15:42.293Z,36.78
2018-07-21T10:18:11.425Z,36.65
2018-07-21T10:20:40.205Z,35.89
2018-07-21T10:23:09.319Z,34.66
2018-07-21T10:25:43.330Z,35.94
2018-07-21T10:28:17.358Z,35.42
2018-07-21T10:30:46.141Z,34.32
2018-07-21T10:33:15.472Z,34.30
2018-07-21T10:35:44.238Z,33.58
2018-07-21T10:38:13.281Z,34.40
2018-07-21T10:40:42.487Z,33.79
2018-07-21T10:43:11.360Z,32.90
2018-07-21T10:45:40.441Z,32.34
2018-07-21T10:48:09.347Z,30.57
2018-07-21T10:50:38.160Z,31.99
2018-07-21T10:53:07.291Z,30.75
2018-07-21T10:55:36.509Z,30.81
2018-07-21T10:58:05.560Z,31.14
2018-07-21T11:00:34.651Z,30.68
2018-07-21T11:03:03.427Z,30.19
2018-07-21T11:05:32.484Z,31.11
2018-07-21T11:08:01.220Z,31.57
2018-07-21T11:10:29.997Z,29.23
2018-07-21T11:12:58.834Z,29.93
2018-07-21T11:15:27.902Z,29.27
2018-07-21T11:17:56.945Z,29.06
2018-07-21T11:20:26.071Z,28.79
2018-07-21T11:22:54.830Z,28.89
2018-07-21T11:25:24.287Z,29.27
2018-07-21T11:27:53.034Z,28.72
2018-07-21T11:30:21.789Z,28.34
2018-07-21T11:32:50.559Z,28.39
2018-07-21T11:35:19.718Z,27.71
2018-07-21T11:37:48.694Z,27.82
2018-07-21T11:40:18.025Z,27.41
2018-07-21T11:42:47.051Z,28.58
2018-07-21T11:45:15.789Z,27.53
2018-07-21T11:47:44.866Z,27.29
2018-07-21T11:50:14.058Z,27.19
2018-07-21T11:52:43.183Z,27.85
2018-07-21T11:55:12.453Z,26.87
2018-07-21T11:57:41.281Z,26.60
2018-07-21T12:00:10.672Z,26.96
2018-07-21T12:02:39.684Z,27.03
2018-07-21T12:05:08.713Z,26.49
2018-07-21T12:07:38.062Z,25.42
2018-07-21T12:10:08.128Z,24.91
2018-07-21T12:12:37.400Z,25.58
2018-07-21T12:15:06.708Z,25.25
2018-07-21T12:17:35.749Z,24.96
2018-07-21T12:20:04.823Z,25.12
2018-07-21T12:22:35.636Z,25.16
2018-07-21T12:25:05.079Z,23.89
2018-07-21T12:27:33.880Z,24.57
2018-07-21T12:30:04.037Z,23.81
2018-07-21T12:32:32.848Z,23.71
2018-07-21T12:35:03.725Z,23.86
2018-07-21T12:37:35.210Z,23.82
2018-07-21T12:40:04.616Z,24.32
2018-07-21T12:42:33.383Z,24.08
2018-07-21T12:45:03.025Z,23.74
2018-07-21T12:47:32.845Z,23.27
2018-07-21T12:50:05.666Z,23.44
2018-07-21T12:52:34.422Z,23.78
2018-07-21T12:55:03.700Z,23.30
2018-07-21T12:57:32.735Z,23.72
2018-07-21T13:00:02.314Z,24.17
2018-07-21T13:02:32.755Z,23.71
2018-07-21T13:05:02.384Z,23.86
2018-07-21T13:07:31.754Z,23.03
2018-07-21T13:10:00.799Z,22.93
2018-07-21T13:12:29.737Z,23.36
2018-07-21T13:15:02.916Z,22.79
2018-07-21T13:17:33.000Z,22.67
2018-07-21T13:20:02.596Z,22.29
2018-07-21T13:22:31.611Z,23.20
2018-07-21T13:25:02.078Z,23.93
2018-07-21T13:27:31.032Z,23.51
2018-07-21T13:29:59.988Z,23.39
2018-07-21T13:32:30.851Z,23.68
2018-07-21T13:34:59.578Z,23.28
2018-07-21T13:37:28.722Z,23.82
2018-07-21T13:40:03.499Z,23.77
2018-07-21T13:42:32.879Z,23.86
2018-07-21T13:45:02.209Z,24.43
2018-07-21T13:47:31.329Z,23.30
2018-07-21T13:50:00.893Z,24.24
2018-07-21T13:52:29.731Z,24.76
2018-07-21T13:54:58.792Z,24.12
2018-07-21T13:57:31.670Z,23.06
2018-07-21T14:00:00.758Z,23.07
2018-07-21T14:02:29.754Z,23.45
2018-07-21T14:04:58.916Z,23.60
2018-07-21T14:07:28.332Z,23.29
2018-07-21T14:10:00.948Z,22.93
2018-07-21T14:12:30.453Z,22.94
2018-07-21T14:14:59.523Z,23.00
2018-07-21T14:17:28.620Z,22.79
2018-07-21T14:19:57.670Z,23.25
2018-07-21T14:22:26.674Z,23.30
2018-07-21T14:24:55.830Z,23.80
2018-07-21T14:27:25.185Z,23.81
2018-07-21T14:29:54.092Z,24.17
2018-07-21T14:32:22.973Z,23.04
2018-07-21T14:34:51.764Z,23.47
2018-07-21T14:37:20.506Z,23.52
2018-07-21T14:39:49.471Z,22.94
2018-07-21T14:42:18.627Z,23.34
2018-07-21T14:44:47.378Z,23.47
2018-07-21T14:47:16.085Z,23.55
2018-07-21T14:49:45.108Z,24.28
2018-07-21T14:52:14.193Z,24.32
2018-07-21T14:54:43.614Z,24.87
2018-07-21T14:57:12.679Z,25.31
2018-07-21T14:59:41.523Z,25.37
2018-07-21T15:02:10.327Z,26.16
2018-07-21T15:04:39.713Z,26.99
2018-07-21T15:07:08.576Z,28.04
2018-07-21T15:09:37.584Z,28.62
2018-07-21T15:12:06.906Z,30.18
2018-07-21T15:14:35.855Z,30.14
2018-07-21T15:17:04.619Z,30.46
2018-07-21T15:19:34.046Z,30.89
2018-07-21T15:22:03.173Z,30.95
2018-07-21T15:24:33.814Z,32.73
2018-07-21T15:27:03.823Z,32.74
2018-07-21T15:29:34.667Z,34.04
2018-07-21T15:32:05.463Z,34.64
2018-07-21T15:34:34.720Z,34.40
2018-07-21T15:37:03.706Z,34.62
2018-07-21T15:39:32.914Z,35.03
2018-07-21T15:42:02.673Z,35.20
2018-07-21T15:44:33.829Z,34.02
2018-07-21T15:47:02.691Z,34.46
2018-07-21T15:49:31.786Z,34.41
2018-07-21T15:52:00.835Z,35.29
2018-07-21T15:54:30.376Z,35.06
2018-07-21T15:56:59.724Z,35.57
2018-07-21T15:59:29.202Z,35.54
2018-07-21T16:01:58.234Z,34.70
2018-07-21T16:04:27.066Z,34.39
2018-07-21T16:07:02.333Z,34.02
2018-07-21T16:09:31.376Z,34.36
2018-07-21T16:12:00.460Z,34.47
2018-07-21T16:14:29.268Z,33.85
2018-07-21T16:16:58.622Z,34.48
2018-07-21T16:19:27.549Z,34.14
2018-07-21T16:21:56.617Z,34.23
2018-07-21T16:24:25.697Z,34.90
2018-07-21T16:26:54.793Z,34.57
2018-07-21T16:29:23.610Z,35.55
2018-07-21T16:31:52.939Z,36.24
2018-07-21T16:34:22.292Z,35.58
2018-07-21T16:36:51.354Z,34.91
2018-07-21T16:39:20.098Z,34.28
2018-07-21T16:41:48.917Z,35.15
2018-07-21T16:44:17.675Z,34.33
2018-07-21T16:46:46.598Z,34.19
2018-07-21T16:49:15.447Z,34.60
2018-07-21T16:51:44.558Z,35.00
2018-07-21T16:54:13.340Z,35.31
2018-07-21T16:56:42.297Z,35.07
2018-07-21T16:59:11.470Z,34.82
2018-07-21T17:01:40.250Z,35.06
2018-07-21T17:04:09.274Z,35.61
2018-07-21T17:06:38.739Z,35.36
2018-07-21T17:09:10.129Z,35.35
2018-07-21T17:11:38.925Z,35.87
2018-07-21T17:14:08.861Z,35.91
2018-07-21T17:16:39.036Z,35.87
2018-07-21T17:19:12.700Z,36.49
2018-07-21T17:21:41.771Z,35.58
2018-07-21T17:24:11.105Z,35.57
2018-07-21T17:26:40.426Z,35.08
2018-07-21T17:29:09.462Z,34.46
2018-07-21T17:31:38.458Z,33.87
2018-07-21T17:34:07.206Z,34.15
2018-07-21T17:36:36.027Z,33.71
2018-07-21T17:39:07.039Z,33.51
2018-07-21T17:41:36.128Z,34.03
2018-07-21T17:44:05.015Z,34.05
2018-07-21T17:46:34.731Z,33.23
2018-07-21T17:49:04.242Z,33.94
2018-07-21T17:51:32.961Z,35.25
2018-07-21T17:54:02.594Z,35.58
2018-07-21T17:56:31.694Z,35.50
2018-07-21T17:59:02.064Z,35.83
2018-07-21T18:01:30.849Z,35.60
2018-07-21T18:03:59.607Z,36.51
2018-07-21T18:06:29.366Z,35.13
2018-07-21T18:08:58.490Z,34.60
2018-07-21T18:11:27.924Z,35.54
2018-07-21T18:13:56.821Z,35.04
2018-07-21T18:16:25.722Z,34.32
2018-07-21T18:18:54.502Z,34.71
2018-07-21T18:21:23.765Z,35.16
2018-07-21T18:23:52.695Z,35.19
2018-07-21T18:26:23.234Z,35.50
2018-07-21T18:28:52.575Z,35.70
2018-07-21T18:31:22.106Z,37.23
2018-07-21T18:33:51.992Z,37.23
2018-07-21T18:36:21.940Z,37.66
2018-07-21T18:38:50.911Z,38.61
2018-07-21T18:41:21.894Z,38.52
2018-07-21T18:43:50.909Z,38.76
2018-07-21T18:46:20.076Z,39.41
2018-07-21T18:48:49.278Z,39.71
2018-07-21T18:51:18.184Z,41.16
2018-07-21T18:53:47.563Z,41.07
2018-07-21T18:56:16.456Z,42.37
2018-07-21T18:58:45.635Z,42.39
2018-07-21T19:01:14.813Z,42.33
2018-07-21T19:03:43.926Z,42.41
2018-07-21T19:06:13.120Z,42.67
2018-07-21T19:08:47.242Z,43.72
2018-07-21T19:11:16.048Z,43.60
2018-07-21T19:13:45.664Z,44.20
2018-07-21T19:16:19.871Z,44.08
2018-07-21T19:18:49.055Z,44.14
2018-07-21T19:21:22.958Z,44.77
2018-07-21T19:23:52.566Z,44.67
2018-07-21T19:26:27.359Z,45.49
2018-07-21T19:28:57.019Z,45.26
2018-07-21T19:31:25.838Z,45.01
2018-07-21T19:33:55.092Z,44.96
2018-07-21T19:36:24.144Z,45.36
2018-07-21T19:38:53.370Z,45.56
2018-07-21T19:41:27.902Z,46.48
2018-07-21T19:43:57.469Z,46.04
2018-07-21T19:46:26.649Z,46.90
2018-07-21T19:48:56.217Z,46.78
2018-07-21T19:51:25.324Z,47.22
2018-07-21T19:54:01.162Z,47.06
2018-07-21T19:56:30.994Z,48.00
2018-07-21T19:58:59.807Z,48.88
2018-07-21T20:01:28.826Z,49.23
2018-07-21T20:03:58.504Z,49.21
2018-07-21T20:06:27.605Z,49.44
2018-07-21T20:08:56.757Z,49.40
2018-07-21T20:11:26.354Z,49.88
2018-07-21T20:13:55.265Z,48.96
2018-07-21T20:16:27.473Z,49.23
2018-07-21T20:18:56.448Z,48.84
2018-07-21T20:21:25.692Z,49.42
2018-07-21T20:23:56.411Z,49.45
2018-07-21T20:26:31.769Z,49.12
2018-07-21T20:29:11.872Z,49.79
2018-07-21T20:31:41.043Z,49.95
2018-07-21T20:34:09.884Z,50.00
2018-07-21T20:36:39.085Z,50.22
2018-07-21T20:39:12.419Z,50.22
2018-07-21T20:41:41.792Z,50.27
2018-07-21T20:44:11.557Z,50.58
2018-07-21T20:46:40.345Z,50.56
2018-07-21T20:49:11.320Z,50.14
2018-07-21T20:51:40.182Z,50.89
2018-07-21T20:54:09.296Z,50.99
2018-07-21T20:56:38.045Z,51.03
2018-07-21T20:59:06.772Z,51.62
2018-07-21T21:01:39.394Z,51.96
2018-07-21T21:04:08.861Z,51.92
2018-07-21T21:06:50.602Z,52.50
2018-07-21T21:09:19.698Z,52.94
2018-07-21T21:11:48.512Z,52.92
2018-07-21T21:14:18.730Z,54.00
2018-07-21T21:16:48.171Z,53.71
2018-07-21T21:19:21.384Z,55.18
2018-07-21T21:21:51.639Z,55.07
2018-07-21T21:24:20.447Z,55.18
2018-07-21T21:26:49.323Z,55.35
2018-07-21T21:29:18.208Z,55.67
2018-07-21T21:31:47.006Z,56.48
2018-07-21T21:34:16.331Z,57.66
2018-07-21T21:36:45.305Z,57.65
2018-07-21T21:39:14.546Z,58.34
2018-07-21T21:41:43.988Z,58.00
2018-07-21T21:44:12.735Z,58.91
2018-07-21T21:46:41.505Z,58.89
2018-07-21T21:49:10.634Z,59.16
2018-07-21T21:51:39.481Z,59.28
2018-07-21T21:54:08.753Z,59.59
2018-07-21T21:56:37.553Z,59.68
2018-07-21T21:59:06.538Z,60.95
2018-07-21T22:01:40.949Z,61.21
2018-07-21T22:04:11.385Z,60.82
2018-07-21T22:06:42.245Z,60.85
2018-07-21T22:09:13.848Z,61.95
2018-07-21T22:11:43.181Z,61.67
2018-07-21T22:14:12.077Z,62.17
2018-07-21T22:16:41.362Z,62.23
2018-07-21T22:19:10.227Z,62.71
2018-07-21T22:21:39.397Z,62.23
2018-07-21T22:24:08.775Z,62.52
2018-07-21T22:26:38.777Z,62.50
2018-07-21T22:29:07.902Z,63.03
2018-07-21T22:31:36.938Z,62.95
2018-07-21T22:34:06.063Z,62.83
2018-07-21T22:36:35.592Z,62.89
2018-07-21T22:39:06.697Z,64.15
2018-07-21T22:41:35.777Z,63.96
2018-07-21T22:44:05.187Z,64.83
2018-07-21T22:46:34.030Z,65.79
2018-07-21T22:49:02.847Z,65.81
2018-07-21T22:51:31.778Z,65.46
2018-07-21T22:54:00.692Z,66.32
2018-07-21T22:56:29.486Z,66.44
2018-07-21T22:58:58.577Z,66.16
2018-07-21T23:01:27.942Z,66.76
2018-07-21T23:03:57.159Z,66.24
2018-07-21T23:06:26.075Z,66.45
2018-07-21T23:08:55.066Z,66.34
2018-07-21T23:11:24.462Z,66.87
2018-07-21T23:13:53.875Z,66.86
2018-07-21T23:16:22.872Z,66.79
2018-07-21T23:18:51.972Z,67.07
2018-07-21T23:21:21.004Z,67.89
2018-07-21T23:23:50.016Z,68.06
2018-07-21T23:26:19.118Z,68.38
2018-07-21T23:28:48.347Z,68.79
2018-07-21T23:31:17.527Z,68.23
2018-07-21T23:33:46.618Z,69.12
2018-07-21T23:36:15.750Z,69.60
2018-07-21T23:38:44.876Z,69.63
2018-07-21T23:41:13.873Z,69.64
2018-07-21T23:43:43.020Z,70.19
2018-07-21T23:46:12.067Z,69.99
2018-07-21T23:48:40.811Z,70.38
2018-07-21T23:51:10.072Z,70.25
2018-07-21T23:53:38.840Z,70.48
2018-07-21T23:56:08.072Z,70.55
2018-07-21T23:58:36.877Z,70.66
